Time;durP1;ratioP1;P1;durP2;ratioP2;P2;SDS_P1;SDS_P2;PMS_P1;PMS_P2;Temp;Humidity;BMP_temperature;BMP_pressure;BME280_temperature;BME280_humidity;BME280_pressure;Samples;Min_cycle;Max_cycle;Signal;HPM_P1;HPM_P2
2022/02/07 00:01:14;;;;;;;24.77;4.40;;;;;;;2.17;100.00;100659.84;5093330;28;20063;-77
2022/02/07 00:03:45;;;;;;;24.23;3.95;;;;;;;2.15;100.00;100659.78;5089572;28;20047;-75
2022/02/07 00:06:13;;;;;;;23.42;3.90;;;;;;;2.15;100.00;100682.38;5089733;28;20073;-76
2022/02/07 00:08:39;;;;;;;26.63;4.70;;;;;;;2.19;100.00;100684.28;5089223;28;20029;-74
2022/02/07 00:11:04;;;;;;;24.63;4.32;;;;;;;2.13;100.00;100703.22;5093498;28;20499;-78
2022/02/07 00:13:29;;;;;;;25.42;3.80;;;;;;;2.06;100.00;100709.91;5093490;28;20036;-78
2022/02/07 00:15:55;;;;;;;24.65;4.15;;;;;;;2.15;100.00;100718.91;5093290;28;20024;-75
2022/02/07 00:18:22;;;;;;;27.40;4.68;;;;;;;2.28;100.00;100744.59;5093099;28;20069;-77
2022/02/07 00:20:48;;;;;;;25.60;4.03;;;;;;;2.19;100.00;100746.88;5093359;28;20043;-77
2022/02/07 00:23:13;;;;;;;25.63;4.18;;;;;;;2.27;100.00;100750.63;5092758;28;20461;-78
2022/02/07 00:25:38;;;;;;;25.92;4.30;;;;;;;2.36;100.00;100758.81;5093115;28;20368;-77
2022/02/07 00:28:04;;;;;;;23.55;3.75;;;;;;;2.34;100.00;100764.81;5092945;28;20467;-77
2022/02/07 00:30:29;;;;;;;27.88;4.50;;;;;;;2.24;100.00;100758.34;5092811;28;20486;-78
2022/02/07 00:32:55;;;;;;;24.63;4.20;;;;;;;2.29;100.00;100772.47;5093312;28;20023;-78
2022/02/07 00:35:23;;;;;;;25.02;4.50;;;;;;;2.31;100.00;100778.63;5093084;28;20106;-73
2022/02/07 00:37:51;;;;;;;24.58;4.20;;;;;;;2.24;100.00;100787.06;5092841;28;20220;-73
2022/02/07 00:42:57;;;;;;;25.17;4.30;;;;;;;2.36;100.00;100805.78;5092939;28;20036;-73
2022/02/07 00:48:11;;;;;;;23.67;4.18;;;;;;;2.53;100.00;100829.88;5026833;28;20116;-73
2022/02/07 00:50:39;;;;;;;21.75;3.38;;;;;;;2.67;100.00;100845.19;5030320;28;20180;-74
2022/02/07 00:53:11;;;;;;;21.20;3.20;;;;;;;2.63;100.00;100838.94;5030592;28;20118;-72
2022/02/07 00:55:36;;;;;;;24.25;3.60;;;;;;;2.73;100.00;100855.84;5030426;28;20084;-72
2022/02/07 00:58:02;;;;;;;19.00;3.10;;;;;;;2.73;100.00;100861.94;5030427;28;20037;-72
2022/02/07 01:00:28;;;;;;;20.23;3.13;;;;;;;2.72;100.00;100870.63;5030253;28;20038;-72
2022/02/07 01:02:53;;;;;;;14.88;2.50;;;;;;;2.72;100.00;100883.69;5030499;28;20037;-74
2022/02/07 01:05:21;;;;;;;19.83;2.67;;;;;;;2.60;100.00;100872.75;5030178;28;20041;-72
2022/02/07 01:07:49;;;;;;;17.15;2.70;;;;;;;2.41;100.00;100892.94;5030188;28;20057;-73
2022/02/07 01:10:20;;;;;;;16.40;2.58;;;;;;;2.25;100.00;100888.84;5030280;28;20038;-73
2022/02/07 01:13:13;;;;;;;16.95;2.75;;;;;;;2.08;100.00;100906.47;5030205;28;20072;-76
2022/02/07 01:15:54;;;;;;;14.05;2.13;;;;;;;1.92;100.00;100906.66;5030268;28;20044;-75
2022/02/07 01:48:17;;;;;;;21.50;3.30;;;;;;;2.43;100.00;101034.81;5063116;28;20036;-78
2022/02/07 01:50:55;;;;;;;20.23;3.35;;;;;;;2.30;100.00;101057.72;5061967;28;20064;-78
2022/02/07 01:53:37;;;;;;;17.90;2.60;;;;;;;2.16;100.00;101065.88;5060467;28;20087;-79
2022/02/07 01:56:06;;;;;;;19.05;3.13;;;;;;;2.08;100.00;101077.69;5062824;28;20357;-77
2022/02/07 01:58:31;;;;;;;19.30;2.90;;;;;;;2.13;100.00;101081.41;5063836;28;20204;-73
2022/02/07 02:00:57;;;;;;;19.77;3.10;;;;;;;2.06;100.00;101084.56;5063304;28;20108;-72
2022/02/07 02:03:22;;;;;;;22.50;3.63;;;;;;;2.06;100.00;101110.66;5062610;28;20040;-73
2022/02/07 02:05:49;;;;;;;21.83;3.10;;;;;;;2.22;100.00;101161.78;5064398;28;20037;-73
2022/02/07 02:08:16;;;;;;;20.90;3.50;;;;;;;2.26;100.00;101155.88;5061520;28;20029;-78
2022/02/07 02:10:47;;;;;;;21.20;2.95;;;;;;;2.36;100.00;101144.06;5074176;28;20036;-73
2022/02/07 02:13:27;;;;;;;21.65;3.30;;;;;;;2.26;100.00;101146.31;5091700;28;20039;-72
2022/02/07 02:37:20;;;;;;;23.00;3.90;;;;;;;1.81;100.00;101210.38;5091492;28;20082;-73
2022/02/07 02:45:30;;;;;;;21.85;3.88;;;;;;;1.97;100.00;101211.97;5091317;28;20084;-73
2022/02/07 02:48:00;;;;;;;21.33;3.60;;;;;;;1.91;100.00;101233.44;5092886;28;20056;-73
2022/02/07 02:50:35;;;;;;;20.80;3.65;;;;;;;1.98;100.00;101243.31;5094974;28;20043;-71
2022/02/07 02:53:06;;;;;;;24.95;3.67;;;;;;;1.92;100.00;101253.47;5094811;28;20099;-73
2022/02/07 02:55:33;;;;;;;23.40;3.80;;;;;;;1.86;100.00;101259.28;5094403;28;20031;-73
2022/02/07 02:57:59;;;;;;;24.52;3.58;;;;;;;2.00;100.00;101262.53;5094567;28;20519;-76
2022/02/07 03:00:27;;;;;;;23.25;3.72;;;;;;;1.93;100.00;101283.94;5094762;28;20099;-79
2022/02/07 03:02:52;;;;;;;26.45;4.20;;;;;;;2.02;100.00;101279.13;5094508;28;20028;-74
2022/02/07 03:05:18;;;;;;;25.67;4.05;;;;;;;1.97;100.00;101282.38;5094376;28;20028;-73
2022/02/07 03:07:44;;;;;;;22.45;3.40;;;;;;;2.16;100.00;101295.44;5094828;28;20024;-76
2022/02/07 03:10:11;;;;;;;24.23;3.75;;;;;;;2.05;100.00;101302.78;5090242;28;20027;-77
2022/02/07 03:12:56;;;;;;;27.75;4.22;;;;;;;1.94;100.00;101306.59;5094287;28;20593;-78
2022/02/07 03:18:05;;;;;;;24.60;3.80;;;;;;;1.90;100.00;101328.13;5094236;28;20047;-78
2022/02/07 03:20:31;;;;;;;23.83;3.42;;;;;;;2.03;100.00;101333.09;5094628;28;20024;-74
2022/02/07 03:22:56;;;;;;;24.25;4.22;;;;;;;1.91;100.00;101345.56;5093954;28;20380;-73
2022/02/07 03:25:21;;;;;;;22.73;3.70;;;;;;;1.92;100.00;101348.25;5093963;28;20051;-78
2022/02/07 03:27:47;;;;;;;25.27;4.45;;;;;;;1.88;100.00;101353.25;5127094;27;20039;-78
2022/02/07 03:30:12;;;;;;;24.67;3.92;;;;;;;1.85;100.00;101345.25;5094303;28;20035;-77
2022/02/07 03:32:38;;;;;;;24.38;4.10;;;;;;;2.04;100.00;101362.66;5093966;28;20540;-80
2022/02/07 03:35:04;;;;;;;25.15;4.10;;;;;;;2.27;100.00;101371.56;5093980;28;20020;-76
2022/02/07 03:37:29;;;;;;;25.50;4.22;;;;;;;2.38;100.00;101380.78;5094118;28;20024;-79
2022/02/07 03:39:54;;;;;;;26.90;4.05;;;;;;;2.33;100.00;101371.88;5093745;28;20111;-79
2022/02/07 03:42:20;;;;;;;21.63;4.35;;;;;;;2.33;100.00;101379.72;5093931;28;20065;-78
2022/02/07 03:44:45;;;;;;;22.38;3.78;;;;;;;2.32;100.00;101396.19;5093898;28;20051;-78
2022/02/07 03:47:10;;;;;;;25.75;4.50;;;;;;;2.39;100.00;101398.25;5094081;28;20031;-73
2022/02/07 03:49:35;;;;;;;26.25;4.35;;;;;;;2.48;100.00;101407.34;5093760;28;20020;-73
2022/02/07 03:52:01;;;;;;;24.92;3.80;;;;;;;2.46;100.00;101408.97;5093522;28;20070;-73
2022/02/07 03:54:26;;;;;;;22.77;3.85;;;;;;;2.44;100.00;101421.94;5093965;28;20055;-73
2022/02/07 03:56:52;;;;;;;23.73;3.67;;;;;;;2.54;100.00;101420.66;5091828;28;20032;-73
2022/02/07 03:59:17;;;;;;;30.02;4.10;;;;;;;2.54;100.00;101425.88;5093347;28;20390;-73
2022/02/07 04:01:44;;;;;;;23.50;4.00;;;;;;;2.41;100.00;101430.50;5093519;28;20368;-72
2022/02/07 04:04:09;;;;;;;23.10;3.65;;;;;;;2.32;100.00;101445.75;5093217;28;20142;-72
2022/02/07 04:06:34;;;;;;;24.63;4.18;;;;;;;2.25;100.00;101443.66;5092677;28;20023;-73
2022/02/07 04:09:05;;;;;;;26.95;4.28;;;;;;;2.21;100.00;101453.06;5093509;28;20076;-72
2022/02/07 04:11:36;;;;;;;26.00;4.90;;;;;;;2.15;100.00;101462.31;5093254;28;20024;-73
2022/02/07 04:14:02;;;;;;;25.55;4.50;;;;;;;2.15;100.00;101464.91;5093471;28;20103;-73
2022/02/07 04:16:29;;;;;;;29.15;4.68;;;;;;;2.13;100.00;101477.00;5093333;28;20056;-73
2022/02/07 04:21:23;;;;;;;29.63;4.80;;;;;;;2.09;100.00;101491.59;5093009;28;20028;-73
2022/02/07 04:23:48;;;;;;;25.50;4.75;;;;;;;2.08;100.00;101503.75;5093140;28;20398;-73
2022/02/07 04:26:13;;;;;;;27.33;4.85;;;;;;;2.08;100.00;101505.44;5093064;28;20387;-72
2022/02/07 04:28:39;;;;;;;27.58;5.20;;;;;;;2.14;100.00;101505.78;5092802;28;20056;-74
2022/02/07 04:31:04;;;;;;;28.30;4.97;;;;;;;2.13;100.00;101521.34;5093192;28;20055;-74
2022/02/07 04:33:29;;;;;;;27.38;5.18;;;;;;;2.19;100.00;101524.25;5092992;28;20073;-73
2022/02/07 04:35:55;;;;;;;28.17;4.57;;;;;;;2.25;100.00;101535.00;5093223;28;20477;-73
2022/02/07 04:38:20;;;;;;;31.27;4.80;;;;;;;2.33;100.00;101543.19;5092972;28;20032;-76
2022/02/07 04:40:45;;;;;;;27.63;4.60;;;;;;;2.33;100.00;101548.41;5092926;28;20028;-73
2022/02/07 04:43:13;;;;;;;30.52;5.20;;;;;;;2.24;100.00;101554.06;5093240;28;20463;-73
2022/02/07 04:45:50;;;;;;;29.52;4.78;;;;;;;2.20;100.00;101555.63;5093144;28;20031;-72
2022/02/07 05:01:30;;;;;;;26.77;4.40;;;;;;;2.37;100.00;101600.81;5092994;28;20035;-72
2022/02/07 05:04:02;;;;;;;30.00;4.57;;;;;;;2.32;100.00;101610.16;5090496;28;20031;-72
2022/02/07 05:14:43;;;;;;;29.15;4.85;;;;;;;2.16;100.00;101620.63;5092642;28;20152;-72
2022/02/07 05:17:09;;;;;;;23.58;4.10;;;;;;;2.11;100.00;101632.53;5092417;28;20099;-73
2022/02/07 05:19:34;;;;;;;26.85;4.60;;;;;;;2.09;100.00;101635.94;5096552;28;20024;-72
2022/02/07 05:21:59;;;;;;;27.85;4.55;;;;;;;2.13;100.00;101639.63;5096395;28;20035;-75
2022/02/07 05:24:25;;;;;;;23.77;4.25;;;;;;;2.31;100.00;101650.09;5096352;28;20048;-73
2022/02/07 05:26:50;;;;;;;25.65;4.47;;;;;;;2.42;100.00;101654.16;5095190;28;20036;-75
2022/02/07 05:29:15;;;;;;;25.55;4.50;;;;;;;2.51;100.00;101658.94;5096585;28;20111;-72
2022/02/07 05:31:41;;;;;;;28.60;4.53;;;;;;;2.63;100.00;101668.22;5096444;28;20034;-72
2022/02/07 05:34:07;;;;;;;27.15;4.80;;;;;;;2.73;100.00;101666.13;5096215;28;20036;-76
2022/02/07 05:36:37;;;;;;;24.63;4.53;;;;;;;2.93;100.00;101689.72;5096210;28;20391;-79
2022/02/07 05:39:03;;;;;;;27.52;4.65;;;;;;;2.99;100.00;101683.91;5096159;28;20066;-73
2022/02/07 05:41:28;;;;;;;24.13;3.83;;;;;;;3.07;100.00;101691.28;5096252;28;20510;-76
2022/02/07 05:43:54;;;;;;;24.08;4.07;;;;;;;2.99;100.00;101689.13;5096000;28;20406;-78
2022/02/07 05:46:20;;;;;;;23.80;4.30;;;;;;;2.93;100.00;101695.84;5096388;28;20106;-77
2022/02/07 05:48:45;;;;;;;23.83;3.95;;;;;;;2.96;100.00;101695.09;5096038;28;20020;-79
2022/02/07 05:51:11;;;;;;;24.70;4.20;;;;;;;3.02;100.00;101705.84;5095835;28;20025;-73
2022/02/07 05:53:36;;;;;;;22.58;3.67;;;;;;;2.97;100.00;101716.06;5095842;28;20028;-72
2022/02/07 05:56:02;;;;;;;27.35;4.25;;;;;;;2.90;100.00;101715.69;5095845;28;20044;-77
2022/02/07 05:58:28;;;;;;;26.63;4.35;;;;;;;2.97;100.00;101717.75;5095741;28;20077;-76
2022/02/07 06:00:54;;;;;;;26.98;4.43;;;;;;;2.83;100.00;101724.06;5095960;28;20035;-77
2022/02/07 06:03:20;;;;;;;26.02;4.32;;;;;;;2.93;100.00;101728.91;5095750;28;20020;-75
2022/02/07 06:05:45;;;;;;;25.33;3.90;;;;;;;2.99;100.00;101737.03;5095623;28;20035;-75
2022/02/07 06:08:10;;;;;;;23.70;3.95;;;;;;;3.16;100.00;101739.56;5094034;28;20119;-74
2022/02/07 06:10:36;;;;;;;26.77;4.50;;;;;;;3.17;100.00;101741.38;5095381;28;20020;-73
2022/02/07 06:13:01;;;;;;;25.42;4.07;;;;;;;3.23;100.00;101752.13;5095689;28;20028;-78
2022/02/07 06:15:27;;;;;;;26.20;4.30;;;;;;;3.17;100.00;101767.50;5095633;28;20394;-79
2022/02/07 06:17:56;;;;;;;27.13;4.43;;;;;;;3.25;100.00;101779.25;5095401;28;20032;-75
2022/02/07 06:20:22;;;;;;;27.00;4.57;;;;;;;3.22;100.00;101805.19;5095584;28;20077;-72
2022/02/07 06:22:47;;;;;;;28.85;4.82;;;;;;;3.20;100.00;101799.91;5095807;28;20024;-74
2022/02/07 06:25:16;;;;;;;28.60;4.88;;;;;;;3.14;100.00;101795.25;5089457;28;20113;-73
2022/02/07 06:27:42;;;;;;;26.75;4.60;;;;;;;3.03;100.00;101799.06;5084156;28;20399;-73
2022/02/07 06:30:10;;;;;;;26.30;4.45;;;;;;;2.87;100.00;101801.72;5092280;28;20020;-76
2022/02/07 06:32:35;;;;;;;26.98;4.60;;;;;;;2.88;100.00;101811.34;5093670;28;20084;-75
2022/02/07 06:35:01;;;;;;;24.10;4.40;;;;;;;2.79;100.00;101812.66;5093557;28;20032;-76
2022/02/07 06:37:27;;;;;;;26.33;4.40;;;;;;;2.65;100.00;101818.00;5093400;28;20024;-76
2022/02/07 06:39:52;;;;;;;22.90;4.00;;;;;;;2.51;100.00;101812.06;5093090;28;20056;-76
2022/02/07 06:42:19;;;;;;;25.20;4.25;;;;;;;2.50;100.00;101825.94;5093840;28;20439;-76
2022/02/07 06:44:44;;;;;;;27.17;4.43;;;;;;;2.50;100.00;101831.16;5093228;28;20032;-77
2022/02/07 06:47:09;;;;;;;23.92;4.47;;;;;;;2.50;100.00;101831.16;5092733;28;20024;-74
2022/02/07 06:49:35;;;;;;;22.75;4.15;;;;;;;2.36;100.00;101846.06;5093585;28;20425;-77
2022/02/07 06:52:00;;;;;;;25.23;4.20;;;;;;;2.32;100.00;101858.06;5093041;28;20050;-76
2022/02/07 06:54:25;;;;;;;25.90;4.53;;;;;;;2.26;100.00;101855.13;5093224;28;20035;-75
2022/02/07 06:56:52;;;;;;;24.02;4.35;;;;;;;2.26;100.00;101865.56;5092726;28;20099;-76
2022/02/07 06:59:19;;;;;;;22.90;3.80;;;;;;;2.27;100.00;101864.72;5093274;28;20056;-77
2022/02/07 07:01:45;;;;;;;23.50;3.90;;;;;;;2.20;100.00;101875.63;5091954;28;20111;-76
2022/02/07 07:04:10;;;;;;;24.58;3.80;;;;;;;2.07;100.00;101872.38;5092856;28;20051;-75
2022/02/07 07:06:36;;;;;;;19.77;3.60;;;;;;;2.12;100.00;101883.06;5092485;28;20474;-76
2022/02/07 07:09:02;;;;;;;24.95;3.78;;;;;;;2.13;100.00;101889.19;5091250;28;20493;-75
2022/02/07 07:11:28;;;;;;;25.27;3.92;;;;;;;2.14;100.00;101890.97;5092983;28;20032;-75
2022/02/07 07:13:59;;;;;;;23.77;4.10;;;;;;;2.21;100.00;101907.06;5093252;28;20021;-75
2022/02/07 07:18:59;;;;;;;26.10;4.20;;;;;;;2.27;100.00;101901.25;5091913;28;20028;-76
2022/02/07 07:21:26;;;;;;;25.23;4.00;;;;;;;2.29;100.00;101912.69;5093559;28;20384;-77
2022/02/07 07:23:52;;;;;;;26.98;4.72;;;;;;;2.37;100.00;101927.03;5092946;28;20059;-77
2022/02/07 07:26:17;;;;;;;26.75;4.47;;;;;;;2.43;100.00;101931.69;5092515;28;20038;-76
2022/02/07 07:28:43;;;;;;;25.08;4.03;;;;;;;2.42;100.00;101933.44;5092932;28;20028;-77
2022/02/07 07:31:11;;;;;;;26.90;4.60;;;;;;;2.43;100.00;101932.63;5092817;28;20020;-76
2022/02/07 07:33:38;;;;;;;25.48;4.70;;;;;;;2.43;100.00;101935.22;5093348;28;20027;-76
2022/02/07 07:36:04;;;;;;;26.00;4.72;;;;;;;2.45;100.00;101935.31;5092343;28;20028;-75
2022/02/07 07:38:29;;;;;;;27.38;4.82;;;;;;;2.50;100.00;101954.72;5092388;28;20024;-79
2022/02/07 07:40:55;;;;;;;26.25;5.03;;;;;;;2.56;100.00;101965.53;5091227;28;20065;-79
2022/02/07 07:43:20;;;;;;;31.05;4.97;;;;;;;2.59;100.00;101972.59;5092312;28;20047;-79
2022/02/07 07:45:48;;;;;;;25.38;5.07;;;;;;;2.61;100.00;101999.72;5092294;28;20371;-78
2022/02/07 07:48:20;;;;;;;29.60;4.90;;;;;;;2.67;100.00;102009.59;5092572;28;20020;-79
2022/02/07 07:51:03;;;;;;;27.10;5.15;;;;;;;2.69;100.00;102013.19;5092583;28;20107;-79
2022/02/07 08:01:38;;;;;;;28.85;5.40;;;;;;;3.13;100.00;102039.13;5092241;28;20383;-81
2022/02/07 08:04:06;;;;;;;33.03;5.25;;;;;;;3.14;100.00;102043.50;5088513;28;20034;-84
2022/02/07 08:06:38;;;;;;;27.02;4.88;;;;;;;3.29;100.00;102046.06;5115929;27;20103;-77
2022/02/07 08:11:33;;;;;;;31.02;5.40;;;;;;;3.39;100.00;102063.09;5092040;28;20359;-76
2022/02/07 08:13:59;;;;;;;30.70;5.82;;;;;;;3.43;100.00;102072.03;5092092;28;20497;-77
2022/02/07 08:16:25;;;;;;;31.05;5.32;;;;;;;3.53;100.00;102090.00;5091322;28;20028;-76
2022/02/07 08:18:51;;;;;;;28.00;5.13;;;;;;;3.52;100.00;102089.91;5092561;28;20042;-77
2022/02/07 08:21:16;;;;;;;32.95;5.50;;;;;;;3.57;100.00;102088.44;5092126;28;20016;-77
2022/02/07 08:23:43;;;;;;;28.05;4.82;;;;;;;3.57;100.00;102080.59;5091753;28;20056;-80
2022/02/07 08:26:10;;;;;;;30.95;5.55;;;;;;;3.61;100.00;102100.84;5089817;28;20032;-79
2022/02/07 08:28:36;;;;;;;30.98;5.05;;;;;;;3.63;100.00;102100.13;5090218;28;20028;-78
2022/02/07 08:31:02;;;;;;;30.55;5.43;;;;;;;3.70;100.00;102087.38;5091245;28;20031;-80
2022/02/07 08:33:27;;;;;;;30.35;5.40;;;;;;;3.73;100.00;102096.28;5088802;28;20024;-86
2022/02/07 08:35:53;;;;;;;29.88;5.07;;;;;;;3.79;100.00;102096.59;5091599;28;20251;-85
2022/02/07 08:38:19;;;;;;;30.85;5.38;;;;;;;3.84;100.00;102097.75;5091352;28;20024;-87
2022/02/07 08:40:46;;;;;;;31.48;5.63;;;;;;;3.81;100.00;102100.19;5090136;28;20027;-86
2022/02/07 08:43:12;;;;;;;29.77;5.15;;;;;;;3.80;100.00;102103.63;5091609;28;20020;-87
2022/02/07 08:45:38;;;;;;;29.02;5.22;;;;;;;3.91;100.00;102121.59;5091555;28;20031;-85
2022/02/07 08:48:04;;;;;;;28.17;5.38;;;;;;;4.00;100.00;102129.91;5089475;28;20119;-69
2022/02/07 08:50:30;;;;;;;31.35;5.65;;;;;;;4.19;100.00;102121.28;5089602;28;20028;-72
2022/02/07 08:52:58;;;;;;;31.88;5.70;;;;;;;4.52;100.00;102123.81;5091314;28;20031;-70
2022/02/07 08:55:32;;;;;;;31.83;5.20;;;;;;;4.80;100.00;102126.06;5088648;28;20020;-72
2022/02/07 08:58:05;;;;;;;28.60;5.35;;;;;;;4.87;100.00;102132.50;5091234;28;20391;-72
2022/02/07 09:00:57;;;;;;;30.13;5.32;;;;;;;4.71;100.00;102129.13;5091530;28;20019;-80
2022/02/07 09:03:31;;;;;;;30.20;5.60;;;;;;;4.66;100.00;102138.50;5091229;28;20429;-83
2022/02/07 09:11:02;;;;;;;26.25;5.00;;;;;;;4.46;100.00;102165.41;5089461;28;20032;-70
2022/02/07 09:13:30;;;;;;;31.38;5.32;;;;;;;4.52;100.00;102166.59;5091725;28;20039;-68
2022/02/07 09:16:04;;;;;;;27.73;4.88;;;;;;;4.64;100.00;102166.31;5090415;28;20466;-68
2022/02/07 09:18:30;;;;;;;27.25;5.50;;;;;;;4.79;100.00;102181.00;5090601;28;20024;-74
2022/02/07 09:20:58;;;;;;;26.70;4.88;;;;;;;4.93;100.00;102189.56;5091548;28;20021;-76
2022/02/07 09:23:23;;;;;;;26.85;4.30;;;;;;;4.93;100.00;102184.31;5092028;28;20103;-72
2022/02/07 09:25:49;;;;;;;27.88;5.43;;;;;;;4.82;100.00;102208.25;5091202;28;20562;-75
2022/02/07 09:28:16;;;;;;;25.98;4.72;;;;;;;5.02;100.00;102205.72;5090957;28;21331;-69
2022/02/07 09:30:41;;;;;;;29.35;5.10;;;;;;;5.15;100.00;102210.72;5091653;28;20020;-69
2022/02/07 09:33:07;;;;;;;24.40;4.50;;;;;;;5.44;100.00;102212.97;5091508;28;20103;-69
2022/02/07 09:35:32;;;;;;;24.90;4.63;;;;;;;5.68;100.00;102219.34;5091508;28;20031;-71
2022/02/07 09:37:58;;;;;;;28.00;4.57;;;;;;;5.68;100.00;102210.56;5090592;28;20133;-77
2022/02/07 09:40:23;;;;;;;27.02;4.47;;;;;;;5.52;100.00;102216.81;5090995;28;20023;-71
2022/02/07 09:42:55;;;;;;;24.50;4.43;;;;;;;5.23;100.00;102232.97;5091657;28;20017;-73
2022/02/07 09:45:30;;;;;;;25.48;4.68;;;;;;;5.20;100.00;102253.81;5091189;28;20026;-72
2022/02/07 09:48:02;;;;;;;28.67;4.75;;;;;;;5.10;100.00;102255.88;5090797;28;20032;-72
2022/02/07 09:50:28;;;;;;;29.48;4.68;;;;;;;4.86;100.00;102254.78;5091170;28;20419;-71
2022/02/07 09:52:53;;;;;;;27.80;4.90;;;;;;;4.75;100.00;102262.88;5090494;28;20104;-74
2022/02/07 09:55:19;;;;;;;30.05;4.80;;;;;;;4.63;100.00;102271.03;5091138;28;20137;-71
2022/02/07 09:57:50;;;;;;;24.73;4.30;;;;;;;4.63;100.00;102278.88;5090392;28;20034;-71
2022/02/07 10:00:19;;;;;;;27.80;4.30;;;;;;;4.67;100.00;102276.50;5090144;28;20074;-78
2022/02/07 10:02:50;;;;;;;25.80;4.20;;;;;;;4.96;100.00;102279.69;5090993;28;20028;-71
2022/02/07 10:05:24;;;;;;;27.85;4.97;;;;;;;5.14;100.00;102287.59;5092518;28;20035;-71
2022/02/07 10:16:02;;;;;;;23.95;4.47;;;;;;;4.94;100.00;102333.78;5094899;28;20040;-81
2022/02/07 10:43:11;;;;;;;25.95;4.90;;;;;;;5.83;100.00;102357.34;5011765;28;20413;-75
2022/02/07 10:46:08;;;;;;;27.10;5.28;;;;;;;5.68;100.00;102378.47;5009458;28;20057;-78
2022/02/07 10:48:54;;;;;;;25.67;5.13;;;;;;;5.61;100.00;102373.75;5011047;28;20080;-81
2022/02/07 10:51:19;;;;;;;24.10;4.70;;;;;;;5.59;100.00;102369.38;5016406;28;20073;-81
2022/02/07 10:53:59;;;;;;;24.10;5.72;;;;;;;5.56;100.00;102377.09;5012851;28;20044;-80
2022/02/07 10:56:36;;;;;;;26.92;5.50;;;;;;;6.15;100.00;102368.53;5013616;28;20042;-80
2022/02/07 10:59:06;;;;;;;26.05;5.68;;;;;;;6.38;100.00;102380.09;4998195;28;20033;-80
2022/02/07 11:02:11;;;;;;;23.67;4.38;;;;;;;6.68;100.00;102369.16;5011149;28;20030;-81
2022/02/07 11:04:40;;;;;;;27.35;4.85;;;;;;;6.94;100.00;102376.44;5013395;28;20037;-79
2022/02/07 11:07:10;;;;;;;24.55;4.50;;;;;;;8.44;100.00;102373.69;5014793;28;20034;-77
2022/02/07 11:12:15;;;;;;;24.45;4.65;;;;;;;7.96;90.92;102378.03;5014539;28;20037;-70
2022/02/07 11:14:58;;;;;;;24.30;4.30;;;;;;;7.69;93.54;102377.84;5056254;28;20071;-71
2022/02/07 11:25:30;;;;;;;22.75;4.03;;;;;;;7.27;95.75;102396.28;5087976;28;20487;-78
2022/02/07 11:27:59;;;;;;;22.40;4.18;;;;;;;6.73;98.21;102389.56;5089499;28;20479;-78
2022/02/07 11:30:45;;;;;;;24.10;4.60;;;;;;;6.80;98.23;102395.97;5092491;28;20540;-71
2022/02/07 11:33:36;;;;;;;21.88;4.55;;;;;;;6.73;98.45;102386.94;5092212;28;20052;-69
2022/02/07 11:36:04;;;;;;;23.80;4.50;;;;;;;6.85;96.06;102391.84;5090958;28;20036;-80
2022/02/07 11:38:29;;;;;;;25.73;4.90;;;;;;;7.24;93.45;102404.03;5092447;28;20020;-80
2022/02/07 11:40:55;;;;;;;20.50;3.95;;;;;;;7.02;92.56;102389.03;5092441;28;20043;-80
2022/02/07 11:43:22;;;;;;;22.92;4.63;;;;;;;7.03;93.75;102383.84;5092158;28;20027;-80
2022/02/07 11:45:53;;;;;;;22.95;4.50;;;;;;;7.94;92.00;102400.78;5091092;28;20031;-73
2022/02/07 11:48:39;;;;;;;22.23;4.25;;;;;;;8.37;86.87;102404.19;5091043;28;20024;-81
2022/02/07 11:51:13;;;;;;;22.50;4.10;;;;;;;8.45;85.82;102412.44;5088967;28;20444;-80
2022/02/07 11:53:47;;;;;;;24.75;4.03;;;;;;;8.10;87.26;102394.38;5089182;28;20572;-80
2022/02/07 11:56:20;;;;;;;22.60;4.00;;;;;;;8.78;82.25;102417.16;5092146;28;20073;-80
2022/02/07 12:02:02;;;;;;;22.30;3.70;;;;;;;9.47;77.28;102411.69;5090982;28;20088;-80
2022/02/07 12:04:27;;;;;;;21.73;3.78;;;;;;;9.60;77.54;102399.78;5089036;28;20036;-81
2022/02/07 12:07:07;;;;;;;22.38;3.90;;;;;;;10.15;75.63;102400.66;5091123;28;20490;-79
2022/02/07 12:09:35;;;;;;;19.13;3.38;;;;;;;10.43;73.20;102394.50;5091985;28;20115;-77
2022/02/07 12:12:01;;;;;;;20.90;3.47;;;;;;;10.39;72.15;102383.78;5092046;28;20025;-77
2022/02/07 12:14:34;;;;;;;18.70;3.13;;;;;;;10.47;70.97;102382.28;5091614;28;20035;-80
2022/02/07 12:17:01;;;;;;;22.02;3.53;;;;;;;10.36;68.43;102395.16;5088701;28;20051;-78
2022/02/07 12:19:40;;;;;;;17.70;3.28;;;;;;;10.18;70.21;102394.56;5091729;28;20020;-77
2022/02/07 12:22:18;;;;;;;23.05;3.58;;;;;;;10.52;70.58;102400.91;5089946;28;20051;-75
2022/02/07 12:24:57;;;;;;;21.17;3.60;;;;;;;11.27;65.67;102400.34;5088661;28;20148;-76
2022/02/07 12:27:25;;;;;;;21.98;3.40;;;;;;;11.60;64.58;102383.50;5090495;28;20026;-75
2022/02/07 12:32:36;;;;;;;18.83;3.30;;;;;;;11.30;63.64;102402.16;5091529;28;20046;-79
2022/02/07 12:35:05;;;;;;;21.48;3.33;;;;;;;11.55;63.78;102395.75;5088356;28;20032;-82
2022/02/07 12:37:37;;;;;;;19.15;3.20;;;;;;;11.06;63.10;102405.06;5090744;28;20459;-79
2022/02/07 12:40:05;;;;;;;18.55;3.15;;;;;;;10.94;62.91;102421.50;5091619;28;20020;-78
2022/02/07 12:42:32;;;;;;;20.45;3.58;;;;;;;11.19;64.43;102409.81;5091152;28;20107;-79
2022/02/07 12:44:58;;;;;;;20.10;3.33;;;;;;;11.72;61.05;102412.03;5091495;28;20109;-79
2022/02/07 12:47:24;;;;;;;17.88;3.05;;;;;;;12.49;59.69;102415.59;5090494;28;20685;-78
2022/02/07 12:49:50;;;;;;;18.58;2.90;;;;;;;12.42;60.41;102419.91;5090575;28;20024;-79
2022/02/07 12:52:16;;;;;;;20.25;3.25;;;;;;;11.81;60.92;102428.19;5091307;28;20024;-77
2022/02/07 12:54:41;;;;;;;21.27;3.45;;;;;;;11.83;61.79;102420.28;5090784;28;20016;-74
2022/02/07 12:57:07;;;;;;;20.42;3.47;;;;;;;11.99;58.71;102430.41;5090825;28;20085;-71
2022/02/07 12:59:32;;;;;;;20.20;3.00;;;;;;;11.82;59.84;102424.69;5091457;28;20024;-71
2022/02/07 13:01:58;;;;;;;19.77;3.45;;;;;;;12.06;59.58;102427.88;5091122;28;20032;-71
2022/02/07 13:04:23;;;;;;;18.88;3.10;;;;;;;12.47;56.83;102449.16;5091160;28;20025;-71
2022/02/07 13:06:55;;;;;;;16.40;2.70;;;;;;;12.22;57.77;102427.41;5090371;28;20048;-70
2022/02/07 13:09:32;;;;;;;19.27;3.17;;;;;;;12.08;57.34;102440.31;5091150;28;20029;-77
2022/02/07 13:12:05;;;;;;;18.83;3.13;;;;;;;12.23;54.49;102465.41;5088748;28;20089;-71
2022/02/07 13:14:36;;;;;;;17.83;2.83;;;;;;;11.22;56.45;102454.03;5091339;28;20020;-78
2022/02/07 13:17:02;;;;;;;18.88;3.00;;;;;;;11.14;57.93;102448.53;5090371;28;20028;-72
2022/02/07 13:19:35;;;;;;;20.60;2.90;;;;;;;10.82;60.87;102444.09;5090712;28;20467;-71
2022/02/07 13:22:00;;;;;;;20.35;2.85;;;;;;;10.03;60.85;102443.47;5088210;28;20028;-76
2022/02/07 13:24:31;;;;;;;17.63;2.70;;;;;;;9.07;64.11;102466.59;5091240;28;20032;-70
2022/02/07 13:26:58;;;;;;;19.63;3.10;;;;;;;8.66;66.08;102458.03;5090264;28;20051;-70
2022/02/07 13:29:34;;;;;;;18.25;2.80;;;;;;;8.57;68.79;102460.34;5090643;28;20111;-70
2022/02/07 13:32:06;;;;;;;18.20;2.90;;;;;;;8.40;68.13;102457.00;5088339;28;20103;-70
2022/02/07 13:34:34;;;;;;;18.88;3.00;;;;;;;8.80;67.34;102471.75;5091216;28;20491;-71
2022/02/07 13:37:16;;;;;;;16.20;2.72;;;;;;;8.43;67.95;102462.44;5090415;28;20474;-71
2022/02/07 13:40:01;;;;;;;21.93;3.50;;;;;;;8.00;70.11;102461.59;5093094;28;20024;-71
2022/02/07 13:42:36;;;;;;;17.10;3.00;;;;;;;7.82;70.55;102471.34;5094631;28;20032;-70
2022/02/07 13:45:04;;;;;;;18.45;2.70;;;;;;;7.73;67.59;102468.34;5092122;28;20073;-73
2022/02/07 13:47:30;;;;;;;17.98;2.67;;;;;;;8.06;68.61;102474.13;5094336;28;20024;-70
2022/02/07 13:50:06;;;;;;;17.98;2.75;;;;;;;9.82;66.40;102477.09;5094668;28;20079;-71
2022/02/07 13:52:35;;;;;;;20.30;3.10;;;;;;;10.69;62.07;102484.28;5092814;28;20390;-73
2022/02/07 13:55:15;;;;;;;16.27;2.58;;;;;;;10.15;62.62;102479.03;5090588;28;20386;-72
2022/02/07 13:57:52;;;;;;;21.27;3.00;;;;;;;9.20;68.44;102491.69;5093938;28;20103;-71
2022/02/07 14:00:20;;;;;;;19.48;3.25;;;;;;;8.53;67.85;102492.69;5094794;28;20111;-70